Hidrolandia, Brazil
Current Conditions -  °F | °C
As of 7:00 AM on Sunday 21 Dec 2014 (Local Time) from SBFZ Reporting Station
Rain Showers Rain Showers  
Wind Chill: 79°   Ceiling: 1800
Heat Index: 81°   Visibility: 6mi
Dew Point: 70°   Wind: 8mph
Humidity: 74%   Direction: 140°SE
Pressure: 29.91"   Gusts: NA
Location:  4.41°S, 40.44°W
Report Text: SBFZ 211000Z 14007KT 9999 VCSH BKN018 FEW025TCU 26/21 Q1013
Loading
Personal Weather Stations






























Interactive Weather Map New forecast layout! Learn more

10-Day Weather Forecast

Advertisements
Track Severe Weather on mobile